createdAt,value
2023-04-15T00:02:19.466Z,88759.97
2023-04-15T00:04:45.798Z,88752.44
2023-04-15T00:07:12.167Z,88766.28
2023-04-15T00:09:38.388Z,88761.44
2023-04-15T00:12:04.639Z,88753.66
2023-04-15T00:14:30.881Z,88751.94
2023-04-15T00:16:57.222Z,88750.47
2023-04-15T00:19:23.554Z,88746.28
2023-04-15T00:21:49.812Z,88736.81
2023-04-15T00:24:16.033Z,88743.97
2023-04-15T00:26:42.250Z,88740.16
2023-04-15T00:29:08.542Z,88740.88
2023-04-15T00:31:34.805Z,88746.44
2023-04-15T00:34:01.065Z,88743.41
2023-04-15T00:36:27.309Z,88734.94
2023-04-15T00:38:53.558Z,88738.28
2023-04-15T00:41:19.823Z,88744.94
2023-04-15T00:43:46.113Z,88737.97
2023-04-15T00:46:12.414Z,88738.75
2023-04-15T00:48:38.669Z,88741.34
2023-04-15T00:51:04.913Z,88744.09
2023-04-15T00:53:31.147Z,88741.59
2023-04-15T00:55:57.430Z,88744.16
2023-04-15T00:58:23.731Z,88740.44
2023-04-15T01:00:49.984Z,88737.75
2023-04-15T01:03:16.403Z,88741.63
2023-04-15T01:05:42.811Z,88741.03
2023-04-15T01:08:09.073Z,88732.19
2023-04-15T01:10:35.365Z,88739.94
2023-04-15T01:13:01.597Z,88738.59
2023-04-15T01:15:27.836Z,88727.38
2023-04-15T01:20:42.977Z,88730.13
2023-04-15T01:23:09.207Z,88737.91
2023-04-15T01:25:35.459Z,88741.34
2023-04-15T01:28:01.720Z,88742.78
2023-04-15T01:30:27.954Z,88738.84
2023-04-15T01:32:54.263Z,88742.31
2023-04-15T01:35:20.538Z,88746.00
2023-04-15T01:37:46.782Z,88741.06
2023-04-15T01:40:13.012Z,88743.84
2023-04-15T01:42:39.254Z,88737.91
2023-04-15T01:45:05.584Z,88734.41
2023-04-15T01:47:31.827Z,88741.13
2023-04-15T01:49:58.105Z,88743.22
2023-04-15T01:52:24.329Z,88734.84
2023-04-15T01:54:50.615Z,88731.84
2023-04-15T01:57:16.863Z,88729.91
2023-04-15T01:59:43.120Z,88722.84
2023-04-15T02:02:09.445Z,88725.72
2023-04-15T02:04:35.685Z,88729.91
2023-04-15T02:07:01.910Z,88731.50
2023-04-15T02:09:28.163Z,88731.25
2023-04-15T02:11:54.421Z,88731.69
2023-04-15T02:14:20.670Z,88731.25
2023-04-15T02:16:46.912Z,88729.00
2023-04-15T02:19:13.181Z,88729.38
2023-04-15T02:21:39.396Z,88729.44
2023-04-15T02:24:05.682Z,88730.09
2023-04-15T02:26:31.968Z,88732.16
2023-04-15T02:28:58.401Z,88726.41
2023-04-15T02:31:24.771Z,88730.81
2023-04-15T02:33:52.620Z,88736.22
2023-04-15T02:36:18.876Z,88725.34
2023-04-15T02:38:45.097Z,88726.41
2023-04-15T02:41:11.316Z,88723.28
2023-04-15T02:43:37.541Z,88733.72
2023-04-15T02:46:03.791Z,88725.81
2023-04-15T02:48:30.072Z,88730.50
2023-04-15T02:50:56.319Z,88726.19
2023-04-15T02:53:22.548Z,88726.41
2023-04-15T02:55:48.772Z,88724.59
2023-04-15T02:58:15.005Z,88724.41
2023-04-15T03:00:41.241Z,88726.38
2023-04-15T03:03:07.633Z,88725.59
2023-04-15T03:05:33.967Z,88722.59
2023-04-15T03:08:00.202Z,88726.81
2023-04-15T03:10:26.538Z,88727.34
2023-04-15T03:12:52.821Z,88727.66
2023-04-15T03:15:19.075Z,88726.75
2023-04-15T03:17:45.356Z,88727.03
2023-04-15T03:20:11.701Z,88719.81
2023-04-15T03:22:38.043Z,88724.13
2023-04-15T03:25:04.337Z,88726.50
2023-04-15T03:27:30.578Z,88724.94
2023-04-15T03:29:56.895Z,88717.75
2023-04-15T03:32:23.199Z,88719.69
2023-04-15T03:34:49.455Z,88726.53
2023-04-15T03:37:15.811Z,88724.16
2023-04-15T03:39:42.069Z,88716.53
2023-04-15T03:42:08.320Z,88710.50
2023-04-15T03:44:34.559Z,88715.72
2023-04-15T03:47:00.801Z,88720.09
2023-04-15T03:49:27.113Z,88719.09
2023-04-15T03:51:53.421Z,88719.28
2023-04-15T03:54:19.637Z,88719.63
2023-04-15T03:56:45.907Z,88717.00
2023-04-15T03:59:12.150Z,88725.34
2023-04-15T04:01:38.460Z,88717.19
2023-04-15T04:04:04.871Z,88725.34
2023-04-15T04:06:31.152Z,88724.59
2023-04-15T04:08:57.373Z,88723.13
2023-04-15T04:11:23.608Z,88715.78
2023-04-15T04:13:49.890Z,88719.28
2023-04-15T04:16:16.237Z,88723.59
2023-04-15T04:18:42.535Z,88724.03
2023-04-15T04:21:08.818Z,88725.78
2023-04-15T04:23:35.053Z,88728.97
2023-04-15T04:26:01.297Z,88730.78
2023-04-15T04:28:27.545Z,88731.06
2023-04-15T04:30:53.802Z,88735.50
2023-04-15T04:33:20.025Z,88734.34
2023-04-15T04:35:46.278Z,88729.75
2023-04-15T04:38:12.553Z,88732.63
2023-04-15T04:40:38.784Z,88732.50
2023-04-15T04:43:05.012Z,88733.94
2023-04-15T04:45:31.262Z,88732.13
2023-04-15T04:47:57.545Z,88735.63
2023-04-15T04:50:23.837Z,88737.50
2023-04-15T04:52:50.076Z,88728.09
2023-04-15T04:55:16.302Z,88727.75
2023-04-15T04:57:42.544Z,88725.44
2023-04-15T05:00:08.812Z,88731.31
2023-04-15T05:02:35.211Z,88734.16
2023-04-15T05:05:01.577Z,88729.34
2023-04-15T05:07:27.840Z,88736.34
2023-04-15T05:09:54.075Z,88734.44
2023-04-15T05:12:20.390Z,88735.91
2023-04-15T05:14:46.713Z,88725.34
2023-04-15T05:17:12.969Z,88721.50
2023-04-15T05:19:39.255Z,88724.28
2023-04-15T05:22:05.550Z,88719.22
2023-04-15T05:24:31.783Z,88727.19
2023-04-15T05:26:58.079Z,88731.88
2023-04-15T05:29:25.571Z,88732.03
2023-04-15T05:31:51.826Z,88728.31
2023-04-15T05:34:18.130Z,88734.50
2023-04-15T05:36:44.371Z,88738.56
2023-04-15T05:39:10.656Z,88744.06
2023-04-15T05:41:36.967Z,88747.53
2023-04-15T05:44:03.222Z,88748.44
2023-04-15T05:46:29.561Z,88748.50
2023-04-15T05:48:56.604Z,88738.72
2023-04-15T05:51:23.086Z,88733.53
2023-04-15T05:53:49.333Z,88744.41
2023-04-15T05:56:15.623Z,88741.16
2023-04-15T05:58:41.894Z,88748.03
2023-04-15T06:01:08.188Z,88751.31
2023-04-15T06:03:34.554Z,88754.44
2023-04-15T06:06:00.896Z,88750.63
2023-04-15T06:08:27.157Z,88744.13
2023-04-15T06:10:53.502Z,88736.66
2023-04-15T06:13:19.739Z,88741.81
2023-04-15T06:15:46.015Z,88741.22
2023-04-15T06:18:12.331Z,88738.38
2023-04-15T06:20:38.585Z,88733.78
2023-04-15T06:23:04.827Z,88731.94
2023-04-15T06:25:31.105Z,88727.16
2023-04-15T06:27:57.440Z,88732.09
2023-04-15T06:30:24.455Z,88719.69
2023-04-15T06:32:50.857Z,88708.41
2023-04-15T06:35:17.095Z,88712.44
2023-04-15T06:37:43.325Z,88711.94
2023-04-15T06:40:09.590Z,88707.16
2023-04-15T06:42:35.922Z,88709.41
2023-04-15T06:45:02.203Z,88713.97
2023-04-15T06:47:28.684Z,88717.47
2023-04-15T06:49:54.963Z,88715.53
2023-04-15T06:52:21.221Z,88711.00
2023-04-15T06:54:47.484Z,88713.66
2023-04-15T06:57:13.749Z,88716.94
2023-04-15T06:59:39.974Z,88718.41
2023-04-15T07:02:06.284Z,88718.06
2023-04-15T07:04:32.648Z,88704.16
2023-04-15T07:06:58.941Z,88710.72
2023-04-15T07:09:25.163Z,88709.56
2023-04-15T07:11:51.408Z,88712.00
2023-04-15T07:14:17.714Z,88711.31
2023-04-15T07:16:44.060Z,88706.81
2023-04-15T07:19:10.346Z,88709.25
2023-04-15T07:21:36.615Z,88704.06
2023-04-15T07:24:02.855Z,88705.28
2023-04-15T07:26:29.126Z,88711.09
2023-04-15T07:28:55.401Z,88702.13
2023-04-15T07:31:21.629Z,88700.75
2023-04-15T07:33:47.943Z,88695.97
2023-04-15T07:36:14.222Z,88704.28
2023-04-15T07:38:40.490Z,88704.50
2023-04-15T07:41:06.770Z,88702.59
2023-04-15T07:43:33.026Z,88707.16
2023-04-15T07:45:59.279Z,88697.53
2023-04-15T07:48:25.524Z,88696.50
2023-04-15T07:50:51.751Z,88700.44
2023-04-15T07:53:17.982Z,88703.56
2023-04-15T07:55:44.225Z,88709.88
2023-04-15T07:58:10.462Z,88702.69
2023-04-15T08:00:36.700Z,88702.41
2023-04-15T08:03:03.083Z,88700.44
2023-04-15T08:05:29.538Z,88705.81
2023-04-15T08:07:55.789Z,88704.69
2023-04-15T08:10:22.059Z,88698.44
2023-04-15T08:12:48.397Z,88708.47
2023-04-15T08:15:14.702Z,88713.03
2023-04-15T08:17:40.991Z,88711.44
2023-04-15T08:20:07.302Z,88711.22
2023-04-15T08:22:34.700Z,88714.44
2023-04-15T08:25:00.957Z,88717.31
2023-04-15T08:27:27.188Z,88720.00
2023-04-15T08:29:53.466Z,88716.34
2023-04-15T08:32:19.795Z,88722.25
2023-04-15T08:34:46.072Z,88724.84
2023-04-15T08:37:12.777Z,88720.69
2023-04-15T08:39:39.162Z,88725.03
2023-04-15T08:42:05.374Z,88736.28
2023-04-15T08:44:31.647Z,88734.53
2023-04-15T08:46:57.969Z,88744.63
2023-04-15T08:49:24.220Z,88740.34
2023-04-15T08:51:50.470Z,88751.88
2023-04-15T08:54:16.738Z,88753.91
2023-04-15T08:56:42.976Z,88749.09
2023-04-15T08:59:09.231Z,88751.50
2023-04-15T09:01:35.587Z,88760.78
2023-04-15T09:04:01.930Z,88760.00
2023-04-15T09:06:28.208Z,88764.28
2023-04-15T09:08:54.495Z,88766.81
2023-04-15T09:11:20.756Z,88769.00
2023-04-15T09:13:47.032Z,88771.72
2023-04-15T09:16:13.314Z,88778.88
2023-04-15T09:18:39.568Z,88779.53
2023-04-15T09:21:05.808Z,88778.72
2023-04-15T09:23:32.111Z,88778.13
2023-04-15T09:25:58.395Z,88783.81
2023-04-15T09:28:24.647Z,88786.97
2023-04-15T09:30:51.011Z,88783.56
2023-04-15T09:33:17.382Z,88788.41
2023-04-15T09:35:43.597Z,88793.91
2023-04-15T09:38:09.949Z,88797.00
2023-04-15T09:40:36.488Z,88794.06
2023-04-15T09:43:02.723Z,88804.03
2023-04-15T09:45:29.640Z,88798.63
2023-04-15T09:47:57.116Z,88800.09
2023-04-15T09:50:24.655Z,88805.16
2023-04-15T09:52:50.908Z,88807.41
2023-04-15T09:55:17.205Z,88805.16
2023-04-15T09:57:43.471Z,88800.00
2023-04-15T10:00:09.710Z,88810.13
2023-04-15T10:02:36.138Z,88805.97
2023-04-15T10:05:02.508Z,88810.81
2023-04-15T10:07:28.756Z,88806.69
2023-04-15T10:09:55.045Z,88808.03
2023-04-15T10:12:21.321Z,88807.28
2023-04-15T10:14:47.573Z,88807.47
2023-04-15T10:17:13.799Z,88811.19
2023-04-15T10:19:40.079Z,88813.94
2023-04-15T10:22:06.340Z,88812.25
2023-04-15T10:24:32.592Z,88825.84
2023-04-15T10:26:58.870Z,88820.38
2023-04-15T10:29:25.124Z,88815.50
2023-04-15T10:31:51.404Z,88821.25
2023-04-15T10:34:17.637Z,88822.06
2023-04-15T10:36:43.894Z,88811.41
2023-04-15T10:39:10.176Z,88811.41
2023-04-15T10:41:36.405Z,88823.72
2023-04-15T10:44:02.828Z,88825.72
2023-04-15T10:46:29.279Z,88824.81
2023-04-15T10:48:55.979Z,88821.97
2023-04-15T10:51:22.287Z,88824.50
2023-04-15T10:53:48.535Z,88832.41
2023-04-15T10:56:14.756Z,88825.91
2023-04-15T10:58:40.999Z,88829.22
2023-04-15T11:01:07.253Z,88837.81
2023-04-15T11:03:33.604Z,88840.75
2023-04-15T11:05:59.976Z,88846.78
2023-04-15T11:08:26.235Z,88846.78
2023-04-15T11:10:52.474Z,88837.81
2023-04-15T11:13:18.716Z,88848.75
2023-04-15T11:15:45.026Z,88851.59
2023-04-15T11:18:11.378Z,88847.16
2023-04-15T11:20:37.723Z,88853.03
2023-04-15T11:23:14.141Z,88849.56
2023-04-15T11:25:41.765Z,88853.53
2023-04-15T11:28:08.092Z,88857.63
2023-04-15T11:30:34.388Z,88852.44
2023-04-15T11:33:00.669Z,88856.88
2023-04-15T11:35:26.928Z,88864.03
2023-04-15T11:37:53.203Z,88859.59
2023-04-15T11:40:19.478Z,88856.25
2023-04-15T11:42:49.524Z,88862.22
2023-04-15T11:45:16.420Z,88862.38
2023-04-15T11:47:42.685Z,88870.22
2023-04-15T11:50:08.917Z,88873.53
2023-04-15T11:52:35.159Z,88871.91
2023-04-15T11:55:01.521Z,88872.44
2023-04-15T11:57:27.851Z,88869.34
2023-04-15T11:59:54.134Z,88864.25
2023-04-15T12:02:20.543Z,88870.06
2023-04-15T12:04:46.897Z,88870.13
2023-04-15T12:07:13.226Z,88878.06
2023-04-15T12:09:39.450Z,88880.25
2023-04-15T12:12:05.678Z,88879.59
2023-04-15T12:14:31.919Z,88889.28
2023-04-15T12:16:58.509Z,88895.09
2023-04-15T12:19:24.992Z,88891.41
2023-04-15T12:21:51.285Z,88895.75
2023-04-15T12:24:17.571Z,88907.59
2023-04-15T12:26:43.792Z,88900.75
2023-04-15T12:29:10.040Z,88906.28
2023-04-15T12:31:36.317Z,88914.03
2023-04-15T12:34:02.770Z,88919.75
2023-04-15T12:36:29.159Z,88933.72
2023-04-15T12:38:56.622Z,88928.13
2023-04-15T12:41:23.071Z,88929.50
2023-04-15T12:43:49.308Z,88937.25
2023-04-15T12:46:15.609Z,88939.25
2023-04-15T12:48:41.886Z,88942.34
2023-04-15T12:51:08.133Z,88948.28
2023-04-15T12:53:34.367Z,88951.38
2023-04-15T12:56:00.614Z,88945.94
2023-04-15T12:58:26.900Z,88958.03
2023-04-15T13:00:53.205Z,88963.38
2023-04-15T13:03:19.478Z,88969.50
2023-04-15T13:05:45.883Z,88971.25
2023-04-15T13:08:12.178Z,88963.75
2023-04-15T13:10:38.416Z,88962.38
2023-04-15T13:13:04.696Z,88964.44
2023-04-15T13:15:31.026Z,88969.19
2023-04-15T13:17:57.272Z,88969.63
2023-04-15T13:20:23.576Z,88966.38
2023-04-15T13:22:49.852Z,88983.84
2023-04-15T13:25:16.095Z,88979.19
2023-04-15T13:27:42.376Z,88982.34
2023-04-15T13:30:08.609Z,88970.81
2023-04-15T13:32:34.933Z,88974.59
2023-04-15T13:35:01.207Z,88988.75
2023-04-15T13:37:27.463Z,88985.38
2023-04-15T13:39:53.730Z,88987.28
2023-04-15T13:42:20.037Z,88985.50
2023-04-15T13:44:46.257Z,88997.03
2023-04-15T13:47:12.476Z,88997.66
2023-04-15T13:49:38.720Z,88994.72
2023-04-15T13:52:04.950Z,89008.56
2023-04-15T13:54:37.684Z,89011.41
2023-04-15T13:57:04.420Z,89010.50
2023-04-15T13:59:30.651Z,89016.84
2023-04-15T14:01:56.915Z,89014.00
2023-04-15T14:04:23.364Z,89023.88
2023-04-15T14:06:49.762Z,89020.53
2023-04-15T14:09:16.017Z,89013.69
2023-04-15T14:11:42.269Z,89019.16
2023-04-15T14:14:08.528Z,89022.59
2023-04-15T14:16:35.016Z,89020.16
2023-04-15T14:19:01.462Z,89031.63
2023-04-15T14:21:27.737Z,89028.66
2023-04-15T14:23:53.960Z,89025.72
2023-04-15T14:26:20.187Z,89030.03
2023-04-15T14:28:46.476Z,89031.03
2023-04-15T14:31:12.759Z,89032.56
2023-04-15T14:33:39.045Z,89038.06
2023-04-15T14:36:05.321Z,89046.50
2023-04-15T14:38:31.546Z,89051.84
2023-04-15T14:40:57.799Z,89051.44
2023-04-15T14:43:24.061Z,89052.75
2023-04-15T14:45:50.336Z,89057.66
2023-04-15T14:48:16.575Z,89064.16
2023-04-15T14:50:42.850Z,89067.84
2023-04-15T14:53:09.280Z,89073.22
2023-04-15T14:55:35.601Z,89075.56
2023-04-15T14:58:01.923Z,89072.00
2023-04-15T15:00:28.239Z,89079.34
2023-04-15T15:02:54.581Z,89085.56
2023-04-15T15:05:21.057Z,89083.38
2023-04-15T15:07:47.417Z,89091.72
2023-04-15T15:10:13.836Z,89090.25
2023-04-15T15:12:40.072Z,89088.75
2023-04-15T15:15:15.655Z,89089.56
2023-04-15T15:17:46.033Z,89098.97
2023-04-15T15:20:12.294Z,89104.69
2023-04-15T15:22:38.541Z,89103.91
2023-04-15T15:25:04.786Z,89106.44
2023-04-15T15:27:31.051Z,89100.34
2023-04-15T15:29:57.298Z,89107.09
2023-04-15T15:32:23.623Z,89111.97
2023-04-15T15:34:49.935Z,89116.47
2023-04-15T15:37:16.276Z,89111.50
2023-04-15T15:39:42.528Z,89108.84
2023-04-15T15:42:08.785Z,89109.16
2023-04-15T15:44:35.023Z,89113.00
2023-04-15T15:47:01.360Z,89113.19
2023-04-15T15:49:27.796Z,89136.34
2023-04-15T15:51:54.071Z,89131.13
2023-04-15T15:54:20.327Z,89133.56
2023-04-15T15:56:46.566Z,89148.28
2023-04-15T15:59:12.857Z,89143.38
2023-04-15T16:01:39.182Z,89148.75
2023-04-15T16:04:05.608Z,89161.03
2023-04-15T16:06:34.442Z,89156.22
2023-04-15T16:09:01.562Z,89158.03
2023-04-15T16:11:27.937Z,89157.41
2023-04-15T16:13:54.214Z,89160.00
2023-04-15T16:16:20.544Z,89157.69
2023-04-15T16:18:46.813Z,89160.53
2023-04-15T16:21:13.090Z,89168.34
2023-04-15T16:23:39.821Z,89171.38
2023-04-15T16:26:06.107Z,89171.34
2023-04-15T16:28:32.340Z,89177.91
2023-04-15T16:30:58.632Z,89187.13
2023-04-15T16:33:24.842Z,89180.00
2023-04-15T16:35:51.107Z,89193.38
2023-04-15T16:38:17.488Z,89179.19
2023-04-15T16:40:43.717Z,89181.78
2023-04-15T16:43:09.957Z,89196.81
2023-04-15T16:45:36.281Z,89195.50
2023-04-15T16:48:02.570Z,89190.41
2023-04-15T16:50:28.897Z,89197.56
2023-04-15T16:52:55.173Z,89195.00
2023-04-15T16:55:21.421Z,89202.25
2023-04-15T16:58:01.868Z,89212.41
2023-04-15T17:00:30.083Z,89208.75
2023-04-15T17:02:56.531Z,89213.38
2023-04-15T17:05:22.942Z,89210.44
2023-04-15T17:07:49.196Z,89223.00
2023-04-15T17:10:15.456Z,89226.03
2023-04-15T17:12:41.697Z,89239.44
2023-04-15T17:15:07.961Z,89231.59
2023-04-15T17:17:34.233Z,89242.66
2023-04-15T17:20:00.510Z,89242.97
2023-04-15T17:22:26.772Z,89249.44
2023-04-15T17:24:53.039Z,89251.47
2023-04-15T17:27:19.299Z,89259.16
2023-04-15T17:29:45.554Z,89261.03
2023-04-15T17:32:11.852Z,89267.66
2023-04-15T17:34:49.696Z,89273.47
2023-04-15T17:37:17.500Z,89278.31
2023-04-15T17:39:43.865Z,89290.94
2023-04-15T17:42:10.122Z,89277.50
2023-04-15T17:44:36.429Z,89291.81
2023-04-15T17:47:02.677Z,89284.44
2023-04-15T17:49:28.932Z,89291.75
2023-04-15T17:51:55.212Z,89295.03
2023-04-15T17:54:21.455Z,89302.38
2023-04-15T17:56:47.695Z,89314.00
2023-04-15T17:59:13.941Z,89313.06
2023-04-15T18:01:40.254Z,89324.09
2023-04-15T18:04:06.855Z,89332.53
2023-04-15T18:06:33.449Z,89331.34
2023-04-15T18:08:59.698Z,89342.63
2023-04-15T18:11:25.942Z,89347.63
2023-04-15T18:13:52.185Z,89347.41
2023-04-15T18:16:18.497Z,89347.66
2023-04-15T18:18:44.824Z,89354.56
2023-04-15T18:21:13.433Z,89359.81
2023-04-15T18:23:40.007Z,89356.56
2023-04-15T18:26:06.248Z,89359.13
2023-04-15T18:28:32.536Z,89368.94
2023-04-15T18:30:58.851Z,89380.78
2023-04-15T18:33:25.086Z,89391.78
2023-04-15T18:35:51.349Z,89398.41
2023-04-15T18:38:17.650Z,89400.00
2023-04-15T18:40:43.894Z,89409.72
2023-04-15T18:43:10.173Z,89416.31
2023-04-15T18:45:36.474Z,89411.97
2023-04-15T18:48:02.784Z,89419.91
2023-04-15T18:50:29.128Z,89425.28
2023-04-15T18:52:55.369Z,89430.94
2023-04-15T18:55:21.625Z,89434.41
2023-04-15T18:57:48.109Z,89427.41
2023-04-15T19:00:14.965Z,89432.31
2023-04-15T19:02:41.261Z,89432.88
2023-04-15T19:05:07.548Z,89434.66
2023-04-15T19:07:33.835Z,89439.97
2023-04-15T19:10:00.139Z,89455.25
2023-04-15T19:12:26.385Z,89457.72
2023-04-15T19:14:52.694Z,89456.03
2023-04-15T19:17:18.978Z,89448.81
2023-04-15T19:19:45.202Z,89448.34
2023-04-15T19:22:11.444Z,89444.78
2023-04-15T19:24:37.726Z,89447.53
2023-04-15T19:27:04.032Z,89461.03
2023-04-15T19:29:30.279Z,89474.66
2023-04-15T19:31:56.516Z,89464.41
2023-04-15T19:34:22.813Z,89461.72
2023-04-15T19:36:49.097Z,89474.66
2023-04-15T19:39:15.339Z,89480.97
2023-04-15T19:41:41.583Z,89485.78
2023-04-15T19:44:07.861Z,89493.97
2023-04-15T19:46:34.197Z,89502.09
2023-04-15T19:49:00.541Z,89513.69
2023-04-15T19:51:26.759Z,89526.59
2023-04-15T19:53:54.032Z,89526.06
2023-04-15T19:56:20.315Z,89534.41
2023-04-15T19:58:46.562Z,89550.44
2023-04-15T20:01:12.820Z,89559.88
2023-04-15T20:03:39.203Z,89556.72
2023-04-15T20:06:05.586Z,89550.72
2023-04-15T20:08:31.851Z,89544.00
2023-04-15T20:10:58.073Z,89546.34
2023-04-15T20:13:24.353Z,89537.16
2023-04-15T20:15:50.603Z,89546.69
2023-04-15T20:18:16.942Z,89551.72
2023-04-15T20:20:43.185Z,89545.88
2023-04-15T20:23:09.404Z,89554.16
2023-04-15T20:25:35.659Z,89562.22
2023-04-15T20:28:01.958Z,89567.78
2023-04-15T20:30:28.187Z,89564.59
2023-04-15T20:32:54.494Z,89557.91
2023-04-15T20:35:20.816Z,89552.69
2023-04-15T20:37:47.056Z,89563.63
2023-04-15T20:40:13.312Z,89561.94
2023-04-15T20:42:39.545Z,89557.19
2023-04-15T20:45:05.763Z,89555.78
2023-04-15T20:47:32.038Z,89554.91
2023-04-15T20:49:58.344Z,89556.84
2023-04-15T20:52:24.624Z,89551.34
2023-04-15T20:54:50.864Z,89567.16
2023-04-15T20:57:17.125Z,89565.41
2023-04-15T20:59:43.409Z,89573.25
2023-04-15T21:02:09.857Z,89568.56
2023-04-15T21:04:36.242Z,89575.22
2023-04-15T21:07:02.505Z,89569.38
2023-04-15T21:09:28.749Z,89569.66
2023-04-15T21:12:01.281Z,89571.00
2023-04-15T21:14:28.090Z,89568.63
2023-04-15T21:16:54.336Z,89579.72
2023-04-15T21:19:20.624Z,89578.59
2023-04-15T21:21:46.875Z,89579.97
2023-04-15T21:24:13.130Z,89578.56
2023-04-15T21:26:39.352Z,89586.78
2023-04-15T21:29:07.864Z,89584.34
2023-04-15T21:31:35.946Z,89581.78
2023-04-15T21:34:02.188Z,89596.41
2023-04-15T21:36:28.447Z,89593.22
2023-04-15T21:38:54.704Z,89607.59
2023-04-15T21:41:20.987Z,89607.78
2023-04-15T21:43:47.288Z,89600.06
2023-04-15T21:46:23.229Z,89601.78
2023-04-15T21:48:51.410Z,89606.38
2023-04-15T21:51:17.674Z,89606.91
2023-04-15T21:53:43.915Z,89603.44
2023-04-15T21:56:10.214Z,89596.47
2023-04-15T21:58:36.450Z,89588.59
2023-04-15T22:01:02.790Z,89590.19
2023-04-15T22:03:29.178Z,89589.94
2023-04-15T22:05:57.299Z,89587.75
2023-04-15T22:08:23.591Z,89597.84
2023-04-15T22:10:49.828Z,89602.13
2023-04-15T22:13:16.094Z,89604.34
2023-04-15T22:15:42.385Z,89608.22
2023-04-15T22:18:08.610Z,89599.75
2023-04-15T22:20:34.883Z,89610.56
2023-04-15T22:23:01.124Z,89615.00
2023-04-15T22:25:27.351Z,89612.75
2023-04-15T22:27:53.580Z,89606.31
2023-04-15T22:30:19.821Z,89618.78
2023-04-15T22:32:46.103Z,89621.41
2023-04-15T22:35:12.432Z,89623.16
2023-04-15T22:37:38.672Z,89621.72
2023-04-15T22:40:04.936Z,89626.78
2023-04-15T22:42:31.213Z,89635.81
2023-04-15T22:44:57.468Z,89624.78
2023-04-15T22:47:23.782Z,89632.47
2023-04-15T22:49:50.056Z,89634.78
2023-04-15T22:52:29.396Z,89638.47
2023-04-15T22:54:56.580Z,89644.44
2023-04-15T22:57:22.855Z,89635.06
2023-04-15T22:59:49.125Z,89644.03
2023-04-15T23:02:15.485Z,89659.19
2023-04-15T23:04:41.977Z,89657.31
2023-04-15T23:07:08.286Z,89661.84
2023-04-15T23:09:34.532Z,89665.59
2023-04-15T23:12:00.779Z,89667.25
2023-04-15T23:14:27.011Z,89670.75
2023-04-15T23:16:53.264Z,89666.28
2023-04-15T23:19:19.502Z,89668.25
2023-04-15T23:21:45.792Z,89677.16
2023-04-15T23:24:12.208Z,89684.31
2023-04-15T23:26:38.443Z,89677.94
2023-04-15T23:29:04.743Z,89685.25
2023-04-15T23:31:31.013Z,89682.25
2023-04-15T23:33:57.301Z,89684.47
2023-04-15T23:36:23.563Z,89685.19
2023-04-15T23:38:49.774Z,89691.13
2023-04-15T23:41:16.020Z,89681.03
2023-04-15T23:43:42.287Z,89684.84
2023-04-15T23:46:08.548Z,89679.50
2023-04-15T23:48:34.787Z,89692.03
2023-04-15T23:51:01.038Z,89691.41
2023-04-15T23:53:27.269Z,89692.88
2023-04-15T23:55:53.503Z,89694.16
2023-04-15T23:58:19.773Z,89687.63
